Terminal Aerodrome Forecast
Issued by NWS

Home | Current Version | Previous Version | Text Only | Print | Product List | Glossary On
Versions: 1 2 3 4 5 6 7 8 9 10 11 12
000
FTUS44 KLIX 170522
TAFGPT
TAF
KGPT 170522Z 1706/1806 10008KT P6SM BKN070 BKN120
     FM170900 11009KT P6SM BKN020 BKN070
     FM171300 13010G20KT P6SM VCSH BKN030 OVC045
     FM171500 15011G21KT P6SM OVC040 PROB30 1715/1719 4SM SHRA
      OVC025
     FM171900 16011KT 2SM SHRA BKN020 OVC040
     FM172300 16007KT 2SM SHRA BKN008 OVC050 PROB30 1800/1801 3/4SM
      SHRA OVC003=

USA.gov is the U.S. government's official web portal to all federal, state and local government web resources and services.